Time;durP1;ratioP1;P1;durP2;ratioP2;P2;SDS_P1;SDS_P2;PMS_P1;PMS_P2;Temp;Humidity;BMP_temperature;BMP_pressure;BME280_temperature;BME280_humidity;BME280_pressure;Samples;Min_cycle;Max_cycle;Signal;HPM_P1;HPM_P2
2024/02/18 00:00:42;;;;;;;11.17;7.10;;;;;;;6.36;100.00;99025.69;5038030;28;20388;-81
2024/02/18 00:03:10;;;;;;;9.95;6.07;;;;;;;6.34;100.00;99027.66;5037621;28;20485;-81
2024/02/18 00:05:36;;;;;;;8.85;5.68;;;;;;;6.34;100.00;99025.84;5040121;28;20407;-81
2024/02/18 00:08:03;;;;;;;8.33;5.87;;;;;;;6.33;100.00;99021.59;5037051;28;20574;-80
2024/02/18 00:10:29;;;;;;;8.75;5.82;;;;;;;6.32;100.00;99025.22;5035286;28;20406;-81
2024/02/18 00:12:55;;;;;;;9.77;6.53;;;;;;;6.35;100.00;99024.88;5035178;28;20399;-81
2024/02/18 00:15:21;;;;;;;11.48;7.25;;;;;;;6.35;100.00;99019.59;5034862;28;20407;-80
2024/02/18 00:17:48;;;;;;;13.27;7.90;;;;;;;6.32;100.00;99017.31;5035291;28;20403;-81
2024/02/18 00:20:16;;;;;;;11.38;7.60;;;;;;;6.27;100.00;99019.69;5035395;28;20413;-80
2024/02/18 00:22:42;;;;;;;9.18;6.57;;;;;;;6.27;100.00;99021.50;5034671;28;20773;-81
2024/02/18 00:25:09;;;;;;;14.50;7.50;;;;;;;6.25;100.00;99016.44;5035848;28;20395;-81
2024/02/18 00:27:35;;;;;;;10.52;6.88;;;;;;;6.22;100.00;99015.00;5043618;28;20422;-80
2024/02/18 00:30:01;;;;;;;9.13;6.70;;;;;;;6.20;100.00;99018.81;5043285;28;20522;-79
2024/02/18 00:32:27;;;;;;;13.15;7.30;;;;;;;6.17;100.00;99017.34;5035685;28;20399;-81
2024/02/18 00:34:54;;;;;;;12.32;7.40;;;;;;;6.22;100.00;99019.44;5034374;28;20740;-81
2024/02/18 00:37:21;;;;;;;14.27;7.70;;;;;;;6.21;100.00;99021.25;5034868;28;20391;-80
2024/02/18 00:39:47;;;;;;;8.88;6.55;;;;;;;6.20;100.00;99013.53;5034154;28;20441;-81
2024/02/18 00:42:13;;;;;;;11.75;7.47;;;;;;;6.20;100.00;99024.06;5034979;28;20414;-81
2024/02/18 00:44:40;;;;;;;8.45;6.65;;;;;;;6.21;100.00;99015.19;5034793;28;20453;-80
2024/02/18 00:47:06;;;;;;;11.05;7.78;;;;;;;6.28;100.00;99007.38;5034448;28;20399;-80
2024/02/18 00:49:32;;;;;;;12.00;8.15;;;;;;;6.30;100.00;99011.47;5034427;28;20415;-80
2024/02/18 00:51:58;;;;;;;12.95;7.35;;;;;;;6.30;100.00;99010.66;5035004;28;20487;-81
2024/02/18 00:54:26;;;;;;;8.70;6.60;;;;;;;6.32;100.00;99014.69;5034780;28;20403;-81
2024/02/18 00:56:52;;;;;;;11.90;7.22;;;;;;;6.33;100.00;99005.81;5016768;28;20416;-82
2024/02/18 00:59:19;;;;;;;10.88;7.28;;;;;;;6.36;100.00;99009.91;5038376;28;20407;-80
2024/02/18 01:01:45;;;;;;;9.32;6.80;;;;;;;6.37;100.00;99014.16;5038255;28;20418;-79
2024/02/18 01:04:11;;;;;;;9.27;6.30;;;;;;;6.37;100.00;99011.53;5038076;28;20406;-81
2024/02/18 01:06:37;;;;;;;9.32;7.07;;;;;;;6.39;100.00;99004.28;5037896;28;20403;-80
2024/02/18 01:09:03;;;;;;;9.95;7.10;;;;;;;6.41;100.00;99004.91;5038378;28;20403;-81
2024/02/18 01:11:32;;;;;;;11.02;7.25;;;;;;;6.42;100.00;99011.78;5038818;28;20403;-80
2024/02/18 01:13:58;;;;;;;12.90;8.15;;;;;;;6.44;100.00;99010.63;5038361;28;20493;-81
2024/02/18 01:16:24;;;;;;;19.30;9.57;;;;;;;6.43;100.00;99001.09;5040015;28;20511;-80
2024/02/18 01:18:50;;;;;;;18.90;8.98;;;;;;;6.39;100.00;98999.03;5040905;28;20399;-78
2024/02/18 01:21:18;;;;;;;12.57;7.80;;;;;;;6.38;100.00;98998.22;5039864;28;20807;-79
2024/02/18 01:23:44;;;;;;;12.80;7.53;;;;;;;6.38;100.00;98995.56;5039544;28;20441;-78
2024/02/18 01:26:10;;;;;;;12.18;8.35;;;;;;;6.40;100.00;98993.56;5039799;28;20395;-80
2024/02/18 01:28:38;;;;;;;14.65;8.82;;;;;;;6.39;100.00;98994.56;5039854;28;20884;-78
2024/02/18 01:31:04;;;;;;;13.55;7.82;;;;;;;6.34;100.00;98989.03;5039534;28;20639;-79
2024/02/18 01:33:30;;;;;;;10.18;7.72;;;;;;;6.32;100.00;98993.66;5039435;28;20395;-80
2024/02/18 01:35:56;;;;;;;11.85;7.28;;;;;;;6.33;100.00;98991.84;5039612;28;20428;-80
2024/02/18 01:38:22;;;;;;;9.18;7.22;;;;;;;6.26;100.00;98989.16;5039204;28;20395;-80
2024/02/18 01:40:48;;;;;;;12.52;8.05;;;;;;;6.20;100.00;98982.00;5040082;28;20884;-79
2024/02/18 01:43:17;;;;;;;8.98;7.05;;;;;;;6.21;100.00;98981.81;5040182;28;20485;-81
2024/02/18 01:45:46;;;;;;;12.00;7.57;;;;;;;6.22;100.00;98985.25;5040484;28;20403;-80
2024/02/18 01:48:12;;;;;;;9.77;6.78;;;;;;;6.21;100.00;98981.81;5039559;28;20399;-81
2024/02/18 01:50:39;;;;;;;8.80;6.15;;;;;;;6.18;100.00;98981.34;5040023;28;20728;-80
2024/02/18 01:53:05;;;;;;;8.15;5.50;;;;;;;6.17;100.00;98980.53;5039460;28;20756;-80
2024/02/18 01:55:32;;;;;;;12.80;6.97;;;;;;;6.16;100.00;98986.78;5039060;28;20411;-80
2024/02/18 01:57:59;;;;;;;10.70;7.57;;;;;;;6.17;100.00;98991.06;5046075;28;20710;-81
2024/02/18 02:00:26;;;;;;;12.45;8.10;;;;;;;6.16;100.00;98991.25;5058964;28;20401;-80
2024/02/18 02:02:54;;;;;;;12.27;7.88;;;;;;;6.16;100.00;98997.31;5059548;28;20955;-80
2024/02/18 02:05:20;;;;;;;10.57;7.80;;;;;;;6.15;100.00;98994.88;5059684;28;20398;-81
2024/02/18 02:07:49;;;;;;;10.25;7.50;;;;;;;6.17;100.00;98990.25;5058876;28;20389;-81
2024/02/18 02:10:16;;;;;;;11.88;7.25;;;;;;;6.15;100.00;98993.06;5059082;28;20393;-80
2024/02/18 02:12:42;;;;;;;9.95;6.75;;;;;;;6.15;100.00;98990.44;5058923;28;20394;-80
2024/02/18 02:15:09;;;;;;;10.25;7.47;;;;;;;6.17;100.00;98988.44;5059372;28;20435;-80
2024/02/18 02:17:37;;;;;;;12.25;7.88;;;;;;;6.16;100.00;98986.00;5058822;28;20386;-81
2024/02/18 02:20:07;;;;;;;14.52;7.70;;;;;;;6.15;100.00;98979.13;5059145;28;20400;-81
2024/02/18 02:22:33;;;;;;;12.17;7.27;;;;;;;6.05;100.00;98971.50;5058890;28;20486;-81
2024/02/18 02:25:00;;;;;;;9.95;6.80;;;;;;;6.05;100.00;98965.44;5058421;28;20762;-81
2024/02/18 02:27:31;;;;;;;9.68;6.68;;;;;;;6.05;100.00;98968.06;5057510;28;20390;-79
2024/02/18 02:30:00;;;;;;;12.65;7.82;;;;;;;6.00;100.00;98965.16;5056999;28;20405;-81
2024/02/18 02:32:26;;;;;;;11.75;7.25;;;;;;;6.01;100.00;98967.63;5057395;28;20398;-81
2024/02/18 02:34:53;;;;;;;10.60;7.45;;;;;;;5.93;100.00;98962.47;5057916;28;20397;-81
2024/02/18 02:37:20;;;;;;;8.05;6.65;;;;;;;5.88;100.00;98956.91;5057346;28;20401;-81
2024/02/18 02:39:46;;;;;;;9.50;7.40;;;;;;;5.81;100.00;98967.31;5057619;28;20440;-81
2024/02/18 02:42:12;;;;;;;11.02;7.53;;;;;;;5.77;100.00;98963.44;5058505;28;20477;-81
2024/02/18 02:44:38;;;;;;;11.45;8.02;;;;;;;5.77;100.00;98960.81;5059415;28;20398;-81
2024/02/18 02:47:06;;;;;;;10.57;7.47;;;;;;;5.63;100.00;98958.19;5068940;28;20401;-79
2024/02/18 02:49:32;;;;;;;8.88;7.55;;;;;;;5.55;100.00;98956.44;5056235;28;20416;-79
2024/02/18 02:51:58;;;;;;;9.85;7.70;;;;;;;5.44;100.00;98960.31;5056218;28;20400;-81
2024/02/18 02:54:25;;;;;;;10.27;7.28;;;;;;;5.41;100.00;98955.41;5056194;28;20393;-79
2024/02/18 02:56:51;;;;;;;16.92;10.38;;;;;;;5.46;100.00;98962.78;5055852;28;20449;-80
2024/02/18 02:59:17;;;;;;;13.48;9.27;;;;;;;5.35;100.00;98957.94;5055951;28;20404;-81
2024/02/18 03:01:43;;;;;;;11.38;8.70;;;;;;;5.26;100.00;98964.28;5055841;28;20924;-81
2024/02/18 03:04:12;;;;;;;12.15;9.20;;;;;;;5.17;100.00;98965.34;5056219;28;20404;-81
2024/02/18 03:06:38;;;;;;;13.50;8.98;;;;;;;5.12;100.00;98960.63;5037911;28;20451;-80
2024/02/18 03:09:04;;;;;;;11.55;8.65;;;;;;;5.15;100.00;98960.28;5055879;28;20408;-80
2024/02/18 03:11:30;;;;;;;15.65;9.38;;;;;;;5.17;100.00;98953.03;5055882;28;20405;-81
2024/02/18 03:13:56;;;;;;;13.98;9.82;;;;;;;5.14;100.00;98955.19;5055551;28;20399;-80
2024/02/18 03:16:23;;;;;;;13.80;9.47;;;;;;;5.03;100.00;98962.53;5055188;28;20762;-79
2024/02/18 03:18:49;;;;;;;12.05;8.45;;;;;;;4.98;100.00;98948.28;5055744;28;20432;-80
2024/02/18 03:21:16;;;;;;;14.43;8.73;;;;;;;4.90;100.00;98943.09;5054779;28;20504;-80
2024/02/18 03:23:42;;;;;;;14.02;8.95;;;;;;;4.85;100.00;98946.25;5056109;28;20396;-81
2024/02/18 03:26:08;;;;;;;17.92;10.00;;;;;;;4.94;100.00;98941.75;5055276;28;20401;-79
2024/02/18 03:28:35;;;;;;;12.67;9.53;;;;;;;4.87;100.00;98941.66;5055572;28;20402;-80
2024/02/18 03:31:01;;;;;;;13.55;8.80;;;;;;;4.88;100.00;98939.84;5055668;28;20386;-80
2024/02/18 03:33:27;;;;;;;16.88;11.70;;;;;;;4.95;100.00;98944.22;5055728;28;20398;-81
2024/02/18 03:35:53;;;;;;;19.75;12.10;;;;;;;4.90;100.00;98940.47;5056232;28;20476;-81
2024/02/18 03:38:20;;;;;;;17.65;11.38;;;;;;;4.89;100.00;98941.47;5055995;28;20433;-81
2024/02/18 03:40:47;;;;;;;17.65;11.13;;;;;;;4.85;100.00;98934.94;5055869;28;20833;-81
2024/02/18 03:43:13;;;;;;;18.83;12.23;;;;;;;4.95;100.00;98944.22;5056843;28;20425;-80
2024/02/18 03:45:39;;;;;;;17.50;11.63;;;;;;;4.93;100.00;98946.19;5058383;28;20397;-79
2024/02/18 03:48:07;;;;;;;19.38;12.18;;;;;;;4.91;100.00;98942.09;5064017;28;20447;-78
2024/02/18 03:50:33;;;;;;;20.47;12.17;;;;;;;4.88;100.00;98940.66;5062744;28;20382;-81
2024/02/18 03:52:59;;;;;;;14.27;10.38;;;;;;;4.88;100.00;98938.03;5055001;28;20408;-81
2024/02/18 03:55:26;;;;;;;19.17;12.25;;;;;;;4.85;100.00;98935.75;5055667;28;20496;-80
2024/02/18 03:57:53;;;;;;;18.77;11.23;;;;;;;4.88;100.00;98929.34;5055911;28;20393;-80
2024/02/18 04:00:19;;;;;;;19.85;13.38;;;;;;;4.94;100.00;98926.84;5057099;28;20897;-79
2024/02/18 04:02:45;;;;;;;24.90;14.07;;;;;;;5.00;100.00;98930.56;5057846;28;20420;-80
2024/02/18 04:05:12;;;;;;;23.98;14.77;;;;;;;4.98;100.00;98928.09;5056319;28;20740;-80
2024/02/18 04:07:38;;;;;;;21.92;13.50;;;;;;;4.89;100.00;98926.53;5056480;28;20413;-80
2024/02/18 04:10:05;;;;;;;20.15;12.90;;;;;;;4.86;100.00;98924.28;5055850;28;20959;-80
2024/02/18 04:12:33;;;;;;;18.55;11.27;;;;;;;4.87;100.00;98930.34;5055071;28;20389;-81
2024/02/18 04:14:59;;;;;;;17.67;11.57;;;;;;;4.89;100.00;98931.78;5055612;28;20415;-81
2024/02/18 04:17:25;;;;;;;17.27;12.00;;;;;;;4.85;100.00;98937.56;5055724;28;20397;-81
2024/02/18 04:19:52;;;;;;;17.88;11.43;;;;;;;4.81;100.00;98929.22;5055478;28;20400;-81
2024/02/18 04:22:18;;;;;;;16.48;11.05;;;;;;;4.82;100.00;98930.03;5055209;28;20425;-81
2024/02/18 04:24:44;;;;;;;21.65;12.60;;;;;;;4.86;100.00;98932.16;5055863;28;20401;-81
2024/02/18 04:27:12;;;;;;;18.92;12.70;;;;;;;4.83;100.00;98929.06;5055411;28;20438;-80
2024/02/18 04:29:39;;;;;;;18.92;11.90;;;;;;;4.78;100.00;98924.34;5055990;28;20389;-81
2024/02/18 04:32:06;;;;;;;19.02;11.88;;;;;;;4.79;100.00;98922.53;5057652;28;20406;-81
2024/02/18 04:34:33;;;;;;;15.77;11.02;;;;;;;4.73;100.00;98918.00;5059706;28;20750;-81
2024/02/18 04:36:59;;;;;;;17.37;11.57;;;;;;;4.65;100.00;98919.69;5059247;28;20491;-81
2024/02/18 04:39:25;;;;;;;21.02;11.30;;;;;;;4.61;100.00;98910.53;5059762;28;20411;-81
2024/02/18 04:41:51;;;;;;;18.15;11.13;;;;;;;4.58;100.00;98908.28;5059638;28;20413;-81
2024/02/18 04:44:17;;;;;;;20.02;12.75;;;;;;;4.51;100.00;98909.16;5060073;28;20448;-80
2024/02/18 04:46:45;;;;;;;22.25;13.35;;;;;;;4.54;100.00;98914.03;5061290;28;20404;-81
2024/02/18 04:49:12;;;;;;;23.67;13.60;;;;;;;4.44;100.00;98909.00;5061973;28;20396;-81
2024/02/18 04:51:38;;;;;;;23.30;13.20;;;;;;;4.45;100.00;98908.03;5061353;28;20432;-81
2024/02/18 04:54:05;;;;;;;20.55;13.38;;;;;;;4.42;100.00;98907.56;5061236;28;20402;-81
2024/02/18 04:56:31;;;;;;;22.38;14.20;;;;;;;4.41;100.00;98913.81;5060789;28;20394;-80
2024/02/18 04:58:57;;;;;;;19.30;11.80;;;;;;;4.33;100.00;98904.19;5061099;28;20408;-81
2024/02/18 05:01:23;;;;;;;17.38;11.68;;;;;;;4.32;100.00;98915.66;5061286;28;20424;-80
2024/02/18 05:03:50;;;;;;;19.88;12.57;;;;;;;4.33;100.00;98908.63;5060448;28;20397;-80
2024/02/18 05:06:16;;;;;;;20.77;12.25;;;;;;;4.32;100.00;98904.34;5060249;28;20393;-80
2024/02/18 05:08:43;;;;;;;20.00;12.85;;;;;;;4.27;100.00;98910.94;5060955;28;20393;-79
2024/02/18 05:11:09;;;;;;;20.75;13.30;;;;;;;4.29;100.00;98906.31;5060385;28;20396;-80
2024/02/18 05:13:35;;;;;;;24.83;14.35;;;;;;;4.19;100.00;98900.50;5060225;28;20428;-81
2024/02/18 05:16:02;;;;;;;18.17;13.15;;;;;;;4.20;100.00;98906.56;5060487;28;20428;-80
2024/02/18 05:18:28;;;;;;;20.92;13.63;;;;;;;4.22;100.00;98907.19;5060687;28;20416;-80
2024/02/18 05:20:55;;;;;;;25.17;14.55;;;;;;;4.18;100.00;98901.50;5061273;28;20431;-80
2024/02/18 05:23:21;;;;;;;23.75;14.77;;;;;;;4.19;100.00;98899.69;5060253;28;20451;-80
2024/02/18 05:25:48;;;;;;;26.73;16.50;;;;;;;4.17;100.00;98899.84;5060597;28;20447;-80
2024/02/18 05:28:14;;;;;;;24.17;14.65;;;;;;;4.10;100.00;98896.31;5061095;28;20392;-80
2024/02/18 05:30:40;;;;;;;23.33;13.52;;;;;;;4.08;100.00;98894.81;5061280;28;20393;-80
2024/02/18 05:33:06;;;;;;;22.77;14.00;;;;;;;4.10;100.00;98887.63;5061172;28;20410;-80
2024/02/18 05:35:32;;;;;;;23.67;15.20;;;;;;;4.02;100.00;98893.72;5042890;28;20398;-80
2024/02/18 05:38:00;;;;;;;22.65;15.02;;;;;;;3.96;100.00;98890.97;5060822;28;20648;-80
2024/02/18 05:40:26;;;;;;;22.20;14.60;;;;;;;3.97;100.00;98885.56;5060699;28;20404;-80
2024/02/18 05:42:52;;;;;;;29.83;18.55;;;;;;;3.98;100.00;98889.00;5058888;28;20471;-80
2024/02/18 05:45:22;;;;;;;32.42;19.85;;;;;;;3.98;100.00;98889.00;5060463;28;20409;-80
2024/02/18 05:47:48;;;;;;;29.10;17.58;;;;;;;3.89;100.00;98883.81;5059666;28;20863;-80
2024/02/18 05:50:14;;;;;;;23.33;16.13;;;;;;;3.82;100.00;98882.06;5060432;28;20485;-80
2024/02/18 05:52:40;;;;;;;23.83;15.50;;;;;;;3.75;100.00;98878.47;5059884;28;20405;-81
2024/02/18 05:55:08;;;;;;;24.55;15.45;;;;;;;3.70;100.00;98875.53;5058859;28;21107;-81
2024/02/18 05:57:34;;;;;;;22.05;14.48;;;;;;;3.71;100.00;98880.63;5057761;28;20719;-81
2024/02/18 06:00:00;;;;;;;26.70;16.98;;;;;;;3.71;100.00;98875.38;5057656;28;20398;-80
2024/02/18 06:02:27;;;;;;;24.38;16.95;;;;;;;3.67;100.00;98878.50;5057861;28;20424;-81
2024/02/18 06:04:53;;;;;;;26.92;16.48;;;;;;;3.73;100.00;98870.78;5057512;28;20404;-81
2024/02/18 06:07:19;;;;;;;31.60;18.55;;;;;;;3.73;100.00;98876.03;5057589;28;20420;-81
2024/02/18 06:09:45;;;;;;;32.07;19.37;;;;;;;3.72;100.00;98866.53;5058089;28;20469;-81
2024/02/18 06:12:14;;;;;;;33.05;19.08;;;;;;;3.76;100.00;98869.66;5058629;28;20406;-81
2024/02/18 06:14:40;;;;;;;34.15;19.95;;;;;;;3.76;100.00;98870.44;5060659;28;20450;-79
2024/02/18 06:17:06;;;;;;;31.08;18.95;;;;;;;3.81;100.00;98864.69;5057704;28;20394;-81
2024/02/18 06:19:32;;;;;;;30.20;18.92;;;;;;;3.80;100.00;98868.31;5057704;28;20400;-81
2024/02/18 06:21:58;;;;;;;30.17;19.05;;;;;;;3.76;100.00;98867.03;5057524;28;20455;-81
2024/02/18 06:24:27;;;;;;;27.63;18.00;;;;;;;3.79;100.00;98861.44;5057788;28;20790;-81
2024/02/18 06:26:53;;;;;;;28.88;18.23;;;;;;;3.83;100.00;98867.97;5056969;28;20447;-81
2024/02/18 06:29:21;;;;;;;34.65;20.70;;;;;;;3.83;100.00;98868.75;5058041;28;20400;-81
2024/02/18 06:31:47;;;;;;;31.67;19.05;;;;;;;3.83;100.00;98871.38;5057347;28;20412;-80
2024/02/18 06:34:13;;;;;;;29.17;18.25;;;;;;;3.88;100.00;98883.97;5057020;28;20410;-81
2024/02/18 06:36:42;;;;;;;33.00;19.15;;;;;;;3.90;100.00;98874.16;5057357;28;20893;-81
2024/02/18 06:39:08;;;;;;;29.45;18.70;;;;;;;3.96;100.00;98875.25;5057030;28;20424;-80
2024/02/18 06:41:34;;;;;;;36.80;21.10;;;;;;;4.04;100.00;98869.97;5057194;28;20512;-81
2024/02/18 06:44:00;;;;;;;31.98;19.85;;;;;;;4.08;100.00;98876.50;5057192;28;20422;-81
2024/02/18 06:46:28;;;;;;;36.13;21.98;;;;;;;4.16;100.00;98874.63;5056909;28;20747;-80
2024/02/18 06:48:54;;;;;;;35.40;20.10;;;;;;;4.20;100.00;98865.44;5056992;28;20861;-81
2024/02/18 06:51:21;;;;;;;27.58;17.17;;;;;;;4.27;100.00;98862.94;5056711;28;20397;-79
2024/02/18 06:53:47;;;;;;;31.85;19.60;;;;;;;4.36;100.00;98869.75;5056611;28;20492;-80
2024/02/18 06:56:18;;;;;;;33.50;19.50;;;;;;;4.44;100.00;98866.25;5056612;28;20408;-80
2024/02/18 06:58:44;;;;;;;33.90;19.98;;;;;;;4.51;100.00;98867.19;5057688;28;20422;-80
2024/02/18 07:01:10;;;;;;;33.13;19.67;;;;;;;4.60;100.00;98868.75;5058472;28;20389;-80
2024/02/18 07:03:37;;;;;;;40.15;21.90;;;;;;;4.67;100.00;98862.63;5063243;28;20411;-79
2024/02/18 07:06:04;;;;;;;30.65;19.38;;;;;;;4.72;100.00;98851.63;5071326;28;20384;-80
2024/02/18 07:08:31;;;;;;;29.17;17.73;;;;;;;4.76;100.00;98852.88;5075663;28;20405;-80
2024/02/18 07:10:57;;;;;;;24.63;15.55;;;;;;;4.80;100.00;98853.34;5068695;28;20406;-80
2024/02/18 07:13:23;;;;;;;31.53;18.67;;;;;;;4.86;100.00;98850.81;5058282;28;20602;-79
2024/02/18 07:15:49;;;;;;;36.05;21.17;;;;;;;4.86;100.00;98852.63;5038767;28;20404;-80
2024/02/18 07:18:15;;;;;;;34.80;20.40;;;;;;;4.84;100.00;98850.19;5037859;28;20411;-79
2024/02/18 07:20:43;;;;;;;34.15;19.42;;;;;;;4.79;100.00;98838.59;5037812;28;20399;-79
2024/02/18 07:23:11;;;;;;;29.48;18.27;;;;;;;4.83;100.00;98842.47;5038064;28;20465;-79
2024/02/18 07:25:40;;;;;;;32.10;18.15;;;;;;;4.89;100.00;98837.31;5037874;28;20407;-79
2024/02/18 07:28:06;;;;;;;31.13;18.67;;;;;;;4.98;100.00;98835.44;5037785;28;20469;-79
2024/02/18 07:30:34;;;;;;;34.50;19.77;;;;;;;5.11;100.00;98827.78;5037467;28;21337;-79
2024/02/18 07:33:01;;;;;;;33.27;19.00;;;;;;;5.19;100.00;98834.75;5037663;28;20407;-79
2024/02/18 07:35:27;;;;;;;33.08;19.98;;;;;;;5.21;100.00;98838.00;5037959;28;20490;-79
2024/02/18 07:37:55;;;;;;;26.20;16.45;;;;;;;5.29;100.00;98827.41;5037883;28;20791;-79
2024/02/18 07:40:22;;;;;;;25.60;16.58;;;;;;;5.39;100.00;98833.19;5037797;28;20415;-80
2024/02/18 07:42:48;;;;;;;25.30;15.60;;;;;;;5.51;100.00;98828.28;5037911;28;20422;-80
2024/02/18 07:45:14;;;;;;;26.55;16.02;;;;;;;5.65;100.00;98832.69;5038314;28;20491;-79
2024/02/18 07:47:40;;;;;;;31.45;18.58;;;;;;;5.72;100.00;98828.34;5037385;28;20403;-80
2024/02/18 07:50:07;;;;;;;29.42;18.33;;;;;;;5.88;100.00;98829.97;5037625;28;20411;-79
2024/02/18 07:52:33;;;;;;;36.00;21.08;;;;;;;5.93;100.00;98822.34;5037305;28;20468;-80
2024/02/18 07:55:01;;;;;;;28.63;18.42;;;;;;;6.14;100.00;98815.28;5037467;28;20418;-79
2024/02/18 07:57:27;;;;;;;29.13;18.17;;;;;;;6.30;100.00;98819.50;5037402;28;20987;-79
2024/02/18 07:59:53;;;;;;;31.37;18.53;;;;;;;6.45;100.00;98825.50;5041024;28;20410;-79
2024/02/18 08:02:21;;;;;;;27.27;16.67;;;;;;;6.52;100.00;98820.28;5037623;28;20442;-79
2024/02/18 08:04:47;;;;;;;26.23;15.48;;;;;;;6.76;100.00;98819.06;5039541;28;20458;-79
2024/02/18 08:07:13;;;;;;;26.40;16.20;;;;;;;6.75;100.00;98826.16;5045045;28;20391;-80
2024/02/18 08:09:39;;;;;;;24.38;15.02;;;;;;;6.89;100.00;98827.88;5051112;28;20498;-80
2024/02/18 08:12:08;;;;;;;22.30;13.68;;;;;;;6.97;100.00;98821.63;5052692;28;20593;-79
2024/02/18 08:14:34;;;;;;;25.42;14.52;;;;;;;7.09;100.00;98814.81;5054246;28;20452;-79
2024/02/18 08:17:00;;;;;;;22.42;14.18;;;;;;;7.38;100.00;98808.47;5065194;28;20490;-81
2024/02/18 08:19:26;;;;;;;24.13;14.52;;;;;;;7.74;100.00;98819.56;5067788;28;20525;-79
2024/02/18 08:21:52;;;;;;;20.97;12.57;;;;;;;7.87;100.00;98818.00;5064312;28;20482;-79
2024/02/18 08:24:18;;;;;;;21.17;13.02;;;;;;;8.13;100.00;98815.44;5048989;28;20403;-79
2024/02/18 08:26:44;;;;;;;20.63;13.10;;;;;;;8.37;100.00;98820.16;5043483;28;20895;-79
2024/02/18 08:29:12;;;;;;;24.85;13.45;;;;;;;8.58;100.00;98803.31;5043593;28;20395;-78
2024/02/18 08:31:38;;;;;;;19.73;12.00;;;;;;;8.69;100.00;98796.63;5044158;28;20886;-80
2024/02/18 08:34:05;;;;;;;17.80;12.15;;;;;;;9.02;100.00;98802.66;5044097;28;20427;-79
2024/02/18 08:36:31;;;;;;;20.80;12.02;;;;;;;9.01;100.00;98781.75;5043876;28;20402;-80
2024/02/18 08:38:57;;;;;;;21.17;12.18;;;;;;;9.00;100.00;98769.56;5043291;28;20386;-79
2024/02/18 08:41:25;;;;;;;20.63;12.13;;;;;;;9.17;100.00;98779.47;5043105;28;20769;-79
2024/02/18 08:43:53;;;;;;;19.15;11.45;;;;;;;8.98;100.00;98764.50;5042905;28;20394;-79
2024/02/18 08:46:20;;;;;;;20.50;11.93;;;;;;;8.98;100.00;98763.69;5043418;28;20410;-80
2024/02/18 08:48:46;;;;;;;21.92;12.63;;;;;;;9.11;100.00;98761.81;5043493;28;20395;-80
2024/02/18 08:51:12;;;;;;;19.67;12.03;;;;;;;9.18;100.00;98767.06;5043853;28;20553;-81
2024/02/18 08:53:40;;;;;;;18.17;10.82;;;;;;;9.42;100.00;98762.94;5043449;28;20406;-79
2024/02/18 08:56:09;;;;;;;17.77;10.73;;;;;;;9.59;100.00;98766.72;5048052;28;20395;-80
2024/02/18 08:58:35;;;;;;;18.83;11.02;;;;;;;10.13;100.00;98768.84;5043401;28;20482;-81
2024/02/18 09:01:02;;;;;;;18.52;10.20;;;;;;;10.38;100.00;98768.88;5044189;28;20431;-84
2024/02/18 09:03:33;;;;;;;16.27;10.88;;;;;;;10.49;100.00;98757.63;5049913;28;20422;-82
2024/02/18 09:05:59;;;;;;;16.67;10.20;;;;;;;10.85;100.00;98765.63;5044359;28;20529;-80
2024/02/18 09:08:25;;;;;;;15.77;9.30;;;;;;;11.03;100.00;98754.25;5045923;28;20525;-80
2024/02/18 09:10:54;;;;;;;14.32;9.02;;;;;;;11.32;100.00;98752.69;5043832;28;20422;-79
2024/02/18 09:13:20;;;;;;;17.52;9.10;;;;;;;10.91;100.00;98739.28;5043267;28;20410;-80
2024/02/18 09:15:47;;;;;;;15.50;8.57;;;;;;;11.36;100.00;98726.53;5043394;28;20409;-79
2024/02/18 09:18:14;;;;;;;14.35;9.20;;;;;;;11.59;100.00;98727.47;5032617;28;20401;-80
2024/02/18 09:20:41;;;;;;;14.48;8.55;;;;;;;11.36;100.00;98727.34;5039426;28;20900;-79
2024/02/18 09:23:08;;;;;;;14.23;8.07;;;;;;;11.32;100.00;98722.72;5032847;28;20426;-79
2024/02/18 09:25:34;;;;;;;11.07;6.97;;;;;;;11.68;100.00;98719.19;5039266;28;20395;-80
2024/02/18 09:28:00;;;;;;;9.35;6.35;;;;;;;12.22;100.00;98736.81;5037706;28;20430;-80
2024/02/18 09:30:26;;;;;;;12.35;7.32;;;;;;;12.45;100.00;98728.06;5040719;28;20399;-80
2024/02/18 09:32:52;;;;;;;10.68;6.88;;;;;;;12.44;100.00;98726.44;5043349;28;20418;-79
2024/02/18 09:35:19;;;;;;;10.32;6.70;;;;;;;12.67;100.00;98731.75;5043336;28;20399;-79
2024/02/18 09:37:47;;;;;;;9.90;6.40;;;;;;;12.76;100.00;98728.53;5040316;28;20461;-81
2024/02/18 09:40:13;;;;;;;9.10;5.53;;;;;;;12.92;100.00;98727.03;5039641;28;20407;-82
2024/02/18 09:42:42;;;;;;;11.82;6.53;;;;;;;13.06;100.00;98701.00;5038995;28;20418;-81
2024/02/18 09:45:11;;;;;;;8.35;5.50;;;;;;;13.09;100.00;98711.13;5040365;28;20831;-81
2024/02/18 09:47:37;;;;;;;5.93;4.70;;;;;;;13.42;100.00;98715.84;5038892;28;20490;-80
2024/02/18 09:50:06;;;;;;;11.13;6.50;;;;;;;13.09;100.00;98690.69;5038547;28;20430;-80
2024/02/18 09:52:33;;;;;;;7.22;5.05;;;;;;;13.46;100.00;98699.16;5038266;28;20399;-80
2024/02/18 09:55:01;;;;;;;8.13;4.80;;;;;;;13.61;100.00;98687.97;5037469;28;20395;-80
2024/02/18 09:57:28;;;;;;;5.80;4.03;;;;;;;13.52;100.00;98673.47;5037864;28;20457;-80
2024/02/18 09:59:54;;;;;;;6.38;4.43;;;;;;;13.35;100.00;98672.59;5038266;28;20410;-80
2024/02/18 10:02:22;;;;;;;6.50;3.75;;;;;;;12.94;100.00;98663.78;5039046;28;20431;-80
2024/02/18 10:04:48;;;;;;;8.15;4.60;;;;;;;12.68;100.00;98664.31;5038069;28;20473;-79
2024/02/18 10:07:15;;;;;;;8.23;4.38;;;;;;;12.98;100.00;98672.13;5038225;28;20431;-80
2024/02/18 10:09:43;;;;;;;5.15;3.72;;;;;;;13.09;100.00;98677.38;5038052;28;20487;-80
2024/02/18 10:12:12;;;;;;;6.72;3.88;;;;;;;12.98;100.00;98670.25;5037461;28;20426;-80
2024/02/18 10:14:38;;;;;;;5.65;3.42;;;;;;;12.78;100.00;98662.66;5039248;28;20454;-79
2024/02/18 10:17:04;;;;;;;4.53;3.25;;;;;;;12.82;100.00;98667.50;5039609;28;20400;-80
2024/02/18 10:19:30;;;;;;;7.68;3.92;;;;;;;12.76;100.00;98662.09;5037931;28;20402;-80
2024/02/18 10:22:00;;;;;;;5.10;3.50;;;;;;;12.64;100.00;98661.28;5037717;28;20414;-80
2024/02/18 10:24:26;;;;;;;5.57;3.92;;;;;;;12.56;100.00;98664.31;5040209;28;20502;-78
2024/02/18 10:26:57;;;;;;;5.40;3.38;;;;;;;12.66;100.00;98663.72;5045874;28;20399;-78
2024/02/18 10:29:25;;;;;;;6.15;4.10;;;;;;;12.65;100.00;98646.16;5046017;28;20494;-79
2024/02/18 10:31:51;;;;;;;6.47;3.90;;;;;;;12.74;100.00;98648.25;5039584;28;20415;-77
2024/02/18 10:34:18;;;;;;;6.13;4.07;;;;;;;12.88;100.00;98634.69;5039236;28;20468;-79
2024/02/18 10:36:47;;;;;;;7.33;4.37;;;;;;;13.02;100.00;98636.03;5038060;28;20427;-78
2024/02/18 10:39:16;;;;;;;4.95;3.83;;;;;;;13.22;100.00;98633.00;5025855;28;20401;-79
2024/02/18 10:41:48;;;;;;;4.47;3.45;;;;;;;13.69;100.00;98631.72;5032156;28;20423;-78
2024/02/18 10:44:18;;;;;;;6.68;4.10;;;;;;;13.76;100.00;98615.59;5037900;28;21008;-78
2024/02/18 10:46:48;;;;;;;6.85;4.30;;;;;;;13.97;100.00;98614.91;5036567;28;20398;-78
2024/02/18 10:49:18;;;;;;;6.38;4.00;;;;;;;14.21;100.00;98615.50;5036547;28;20391;-79
2024/02/18 10:51:49;;;;;;;7.07;3.90;;;;;;;14.39;100.00;98614.47;5036979;28;20427;-79
2024/02/18 10:54:22;;;;;;;8.50;4.13;;;;;;;14.07;100.00;98612.38;5036700;28;20910;-79
2024/02/18 10:56:49;;;;;;;6.38;4.25;;;;;;;13.91;100.00;98611.31;5038244;28;20394;-81
2024/02/18 10:59:22;;;;;;;6.55;4.18;;;;;;;13.85;100.00;98606.16;5042408;28;20416;-78
2024/02/18 11:01:58;;;;;;;5.78;3.70;;;;;;;13.71;100.00;98611.00;5036392;28;20395;-78
2024/02/18 11:04:25;;;;;;;6.93;4.43;;;;;;;13.64;100.00;98605.03;5036596;28;20432;-80
2024/02/18 11:06:54;;;;;;;7.47;3.87;;;;;;;13.39;100.00;98602.72;5036124;28;20752;-80
2024/02/18 11:09:21;;;;;;;7.72;4.70;;;;;;;13.31;100.00;98603.13;5036257;28;20399;-80
2024/02/18 11:11:50;;;;;;;10.23;5.40;;;;;;;13.41;100.00;98599.84;5036310;28;20426;-80
2024/02/18 11:14:21;;;;;;;8.15;5.18;;;;;;;13.31;100.00;98595.13;5036478;28;20803;-79
2024/02/18 11:16:50;;;;;;;9.48;5.90;;;;;;;13.29;100.00;98596.44;5038112;28;20441;-79
2024/02/18 11:19:18;;;;;;;9.90;5.28;;;;;;;12.87;100.00;98591.34;5036198;28;20474;-80